createdAt,value
2019-05-28T00:00:19.143Z,15.30
2019-05-28T00:02:48.708Z,15.30
2019-05-28T00:05:18.817Z,15.30
2019-05-28T00:07:48.362Z,15.30
2019-05-28T00:10:18.063Z,15.20
2019-05-28T00:12:47.575Z,15.20
2019-05-28T00:15:17.890Z,15.20
2019-05-28T00:17:47.438Z,15.20
2019-05-28T00:20:16.952Z,15.20
2019-05-28T00:22:46.612Z,15.20
2019-05-28T00:25:16.310Z,15.20
2019-05-28T00:27:45.832Z,15.10
2019-05-28T00:30:20.297Z,15.10
2019-05-28T00:32:46.611Z,15.10
2019-05-28T00:35:16.898Z,15.10
2019-05-28T00:37:46.545Z,15.00
2019-05-28T00:40:16.090Z,15.00
2019-05-28T00:42:45.731Z,15.00
2019-05-28T00:45:15.358Z,15.00
2019-05-28T00:47:44.914Z,15.00
2019-05-28T00:50:15.347Z,15.00
2019-05-28T00:52:45.036Z,15.00
2019-05-28T00:55:14.726Z,15.00
2019-05-28T00:57:46.443Z,15.00
2019-05-28T01:00:16.781Z,15.00
2019-05-28T01:02:46.348Z,15.00
2019-05-28T01:05:15.861Z,15.00
2019-05-28T01:07:45.760Z,15.00
2019-05-28T01:10:15.303Z,15.00
2019-05-28T01:12:44.826Z,15.00
2019-05-28T01:15:14.326Z,15.00
2019-05-28T01:17:44.392Z,14.90
2019-05-28T01:20:13.911Z,14.90
2019-05-28T01:22:43.575Z,14.90
2019-05-28T01:25:16.553Z,14.90
2019-05-28T01:27:44.719Z,14.90
2019-05-28T01:30:14.411Z,14.90
2019-05-28T01:32:43.970Z,14.90
2019-05-28T01:35:13.480Z,14.90
2019-05-28T01:37:43.004Z,14.90
2019-05-28T01:40:13.034Z,14.90
2019-05-28T01:42:42.647Z,15.00
2019-05-28T01:45:15.026Z,15.00
2019-05-28T01:47:44.575Z,15.00
2019-05-28T01:50:14.107Z,15.00
2019-05-28T01:52:43.677Z,15.00
2019-05-28T01:55:13.327Z,15.00
2019-05-28T01:57:42.802Z,14.90
2019-05-28T02:00:12.404Z,15.00
2019-05-28T02:02:41.981Z,14.90
2019-05-28T02:05:11.530Z,15.00
2019-05-28T02:07:41.007Z,14.90
2019-05-28T02:10:10.505Z,14.90
2019-05-28T02:12:39.978Z,14.90
2019-05-28T02:15:10.663Z,14.90
2019-05-28T02:17:40.264Z,14.90
2019-05-28T02:20:11.568Z,14.90
2019-05-28T02:22:41.067Z,14.90
2019-05-28T02:25:11.992Z,14.90
2019-05-28T02:27:41.459Z,14.90
2019-05-28T02:30:12.440Z,14.90
2019-05-28T02:32:41.947Z,14.90
2019-05-28T02:35:13.220Z,14.90
2019-05-28T02:37:42.710Z,14.90
2019-05-28T02:40:12.204Z,14.90
2019-05-28T02:42:41.698Z,14.90
2019-05-28T02:45:11.280Z,14.90
2019-05-28T02:47:40.783Z,14.90
2019-05-28T02:50:10.766Z,14.90
2019-05-28T02:52:40.461Z,14.90
2019-05-28T02:55:09.976Z,14.90
2019-05-28T02:57:41.035Z,14.90
2019-05-28T03:00:16.382Z,14.90
2019-05-28T03:02:47.936Z,14.90
2019-05-28T03:05:17.667Z,14.80
2019-05-28T03:07:48.297Z,14.80
2019-05-28T03:10:58.291Z,14.70
2019-05-28T03:13:02.760Z,14.70
2019-05-28T03:15:34.702Z,14.60
2019-05-28T03:18:04.175Z,14.60
2019-05-28T03:20:33.814Z,14.70
2019-05-28T03:23:03.380Z,14.60
2019-05-28T03:25:33.159Z,14.60
2019-05-28T03:28:02.851Z,14.60
2019-05-28T03:30:32.452Z,14.60
2019-05-28T03:33:01.928Z,14.60
2019-05-28T03:35:31.436Z,14.60
2019-05-28T03:38:01.423Z,14.60
2019-05-28T03:40:45.158Z,14.60
2019-05-28T03:43:14.748Z,14.60
2019-05-28T03:45:44.317Z,14.50
2019-05-28T03:48:13.836Z,14.60
2019-05-28T03:50:43.325Z,14.60
2019-05-28T03:53:12.899Z,14.60
2019-05-28T03:55:42.477Z,14.60
2019-05-28T03:58:11.958Z,14.60
2019-05-28T04:00:41.443Z,14.60
2019-05-28T04:03:11.046Z,14.50
2019-05-28T04:05:40.564Z,14.50
2019-05-28T04:08:10.088Z,14.50
2019-05-28T04:10:39.950Z,14.50
2019-05-28T04:13:09.421Z,14.60
2019-05-28T04:15:38.895Z,14.60
2019-05-28T04:18:08.516Z,14.60
2019-05-28T04:20:37.986Z,14.60
2019-05-28T04:23:12.239Z,14.60
2019-05-28T04:25:41.754Z,14.60
2019-05-28T04:28:11.230Z,14.60
2019-05-28T04:30:40.912Z,14.50
2019-05-28T04:33:10.422Z,14.60
2019-05-28T04:35:39.901Z,14.60
2019-05-28T04:38:09.373Z,14.60
2019-05-28T04:40:38.992Z,14.60
2019-05-28T04:43:08.458Z,14.60
2019-05-28T04:45:37.938Z,14.60
2019-05-28T04:48:07.429Z,14.60
2019-05-28T04:50:36.903Z,14.60
2019-05-28T04:53:06.704Z,14.70
2019-05-28T04:55:36.197Z,14.60
2019-05-28T04:58:06.165Z,14.60
2019-05-28T05:00:35.643Z,14.60
2019-05-28T05:03:05.250Z,14.60
2019-05-28T05:05:34.740Z,14.60
2019-05-28T05:08:04.414Z,14.60
2019-05-28T05:10:34.060Z,14.60
2019-05-28T05:13:03.541Z,14.60
2019-05-28T05:15:33.020Z,14.60
2019-05-28T05:18:02.597Z,14.60
2019-05-28T05:20:32.082Z,14.60
2019-05-28T05:23:01.555Z,14.60
2019-05-28T05:25:31.212Z,14.60
2019-05-28T05:28:00.702Z,14.60
2019-05-28T05:30:30.169Z,14.60
2019-05-28T05:33:18.748Z,14.60
2019-05-28T05:35:30.940Z,14.60
2019-05-28T05:38:00.466Z,14.60
2019-05-28T05:40:29.964Z,14.60
2019-05-28T05:42:59.452Z,14.60
2019-05-28T05:45:28.916Z,14.60
2019-05-28T05:47:58.424Z,14.60
2019-05-28T05:50:27.915Z,14.60
2019-05-28T05:52:57.388Z,14.70
2019-05-28T05:55:26.895Z,14.60
2019-05-28T05:57:56.382Z,14.70
2019-05-28T06:00:25.856Z,14.60
2019-05-28T06:02:55.395Z,14.70
2019-05-28T06:05:24.876Z,14.70
2019-05-28T06:07:54.396Z,14.70
2019-05-28T06:10:23.956Z,14.70
2019-05-28T06:12:53.438Z,14.70
2019-05-28T06:15:22.934Z,14.70
2019-05-28T06:17:52.443Z,14.70
2019-05-28T06:20:21.951Z,14.70
2019-05-28T06:22:51.437Z,14.70
2019-05-28T06:25:21.035Z,14.80
2019-05-28T06:27:50.647Z,14.70
2019-05-28T06:30:20.160Z,14.70
2019-05-28T06:32:49.643Z,14.80
2019-05-28T06:35:19.123Z,14.80
2019-05-28T06:37:48.640Z,14.90
2019-05-28T06:40:18.105Z,14.90
2019-05-28T06:42:47.690Z,14.90
2019-05-28T06:45:36.576Z,14.90
2019-05-28T06:48:06.053Z,15.00
2019-05-28T06:50:35.521Z,15.00
2019-05-28T06:53:05.054Z,15.10
2019-05-28T06:55:34.813Z,15.10
2019-05-28T06:58:04.397Z,15.10
2019-05-28T07:00:33.924Z,15.20
2019-05-28T07:03:03.492Z,15.20
2019-05-28T07:05:32.980Z,15.20
2019-05-28T07:08:02.712Z,15.20
2019-05-28T07:10:32.181Z,15.20
2019-05-28T07:13:01.650Z,15.20
2019-05-28T07:15:31.157Z,15.20
2019-05-28T07:18:00.811Z,15.20
2019-05-28T07:20:30.289Z,15.20
2019-05-28T07:22:59.716Z,15.20
2019-05-28T07:25:29.184Z,15.20
2019-05-28T07:28:10.572Z,15.20
2019-05-28T07:30:29.884Z,15.30
2019-05-28T07:32:59.474Z,15.30
2019-05-28T07:35:42.677Z,15.30
2019-05-28T07:38:00.163Z,15.20
2019-05-28T07:40:32.076Z,15.30
2019-05-28T07:43:00.830Z,15.30
2019-05-28T07:45:30.347Z,15.30
2019-05-28T07:47:59.823Z,15.40
2019-05-28T07:50:29.393Z,15.40
2019-05-28T07:52:58.914Z,15.40
2019-05-28T07:55:28.392Z,15.50
2019-05-28T07:57:57.873Z,15.50
2019-05-28T08:00:44.439Z,15.60
2019-05-28T08:03:13.910Z,15.70
2019-05-28T08:05:43.477Z,15.90
2019-05-28T08:08:16.249Z,16.00
2019-05-28T08:10:46.112Z,16.10
2019-05-28T08:13:15.578Z,16.30
2019-05-28T08:15:45.375Z,16.50
2019-05-28T08:18:14.844Z,16.60
2019-05-28T08:20:44.320Z,16.70
2019-05-28T08:23:13.826Z,16.80
2019-05-28T08:25:47.344Z,16.80
2019-05-28T08:28:19.792Z,17.00
2019-05-28T08:30:45.851Z,17.10
2019-05-28T08:33:15.427Z,17.20
2019-05-28T08:35:44.882Z,17.20
2019-05-28T08:38:14.407Z,17.30
2019-05-28T08:40:44.089Z,17.40
2019-05-28T08:43:13.567Z,17.40
2019-05-28T08:45:43.110Z,17.40
2019-05-28T08:48:12.685Z,17.30
2019-05-28T08:50:42.159Z,17.20
2019-05-28T08:53:11.663Z,17.20
2019-05-28T08:55:41.133Z,17.20
2019-05-28T08:58:10.675Z,17.20
2019-05-28T09:00:43.168Z,17.30
2019-05-28T09:03:12.653Z,17.30
2019-05-28T09:05:42.124Z,17.40
2019-05-28T09:08:11.639Z,17.40
2019-05-28T09:10:41.094Z,17.50
2019-05-28T09:13:10.523Z,17.50
2019-05-28T09:15:40.223Z,17.50
2019-05-28T09:18:09.719Z,17.60
2019-05-28T09:20:39.243Z,17.60
2019-05-28T09:23:08.741Z,17.60
2019-05-28T09:25:38.255Z,17.70
2019-05-28T09:28:07.766Z,17.70
2019-05-28T09:30:37.260Z,17.60
2019-05-28T09:33:06.779Z,17.70
2019-05-28T09:35:44.706Z,17.80
2019-05-28T09:38:07.526Z,17.80
2019-05-28T09:40:49.306Z,17.80
2019-05-28T09:43:08.291Z,17.90
2019-05-28T09:45:37.788Z,17.90
2019-05-28T09:48:07.265Z,17.90
2019-05-28T09:50:36.901Z,18.00
2019-05-28T09:53:06.404Z,17.90
2019-05-28T09:55:35.962Z,18.00
2019-05-28T09:58:05.426Z,18.00
2019-05-28T10:00:36.506Z,18.10
2019-05-28T10:03:06.678Z,18.20
2019-05-28T10:05:36.149Z,18.20
2019-05-28T10:08:05.752Z,18.20
2019-05-28T10:10:35.225Z,18.30
2019-05-28T10:13:04.812Z,18.30
2019-05-28T10:15:34.348Z,18.50
2019-05-28T10:18:03.913Z,18.60
2019-05-28T10:20:37.554Z,18.50
2019-05-28T10:23:04.624Z,18.60
2019-05-28T10:25:34.084Z,18.70
2019-05-28T10:28:03.655Z,18.90
2019-05-28T10:30:33.279Z,19.20
2019-05-28T10:33:02.755Z,19.40
2019-05-28T10:35:32.321Z,19.50
2019-05-28T10:38:01.941Z,19.50
2019-05-28T10:40:31.473Z,19.70
2019-05-28T10:43:00.944Z,19.50
2019-05-28T10:45:30.478Z,19.60
2019-05-28T10:47:59.949Z,19.60
2019-05-28T10:50:29.616Z,19.80
2019-05-28T10:52:59.126Z,19.90
2019-05-28T10:55:28.599Z,19.90
2019-05-28T10:57:58.112Z,20.10
2019-05-28T11:00:27.865Z,20.10
2019-05-28T11:02:57.194Z,20.10
2019-05-28T11:05:26.740Z,20.20
2019-05-28T11:07:56.239Z,20.40
2019-05-28T11:10:25.819Z,20.40
2019-05-28T11:12:55.351Z,20.50
2019-05-28T11:15:24.831Z,20.70
2019-05-28T11:17:54.311Z,20.80
2019-05-28T11:20:23.824Z,20.90
2019-05-28T11:22:53.309Z,21.00
2019-05-28T11:25:23.093Z,21.00
2019-05-28T11:27:52.664Z,20.90
2019-05-28T11:30:22.153Z,20.80
2019-05-28T11:32:51.638Z,20.80
2019-05-28T11:35:21.722Z,20.90
2019-05-28T11:37:51.185Z,20.90
2019-05-28T11:40:20.704Z,20.90
2019-05-28T11:42:50.218Z,20.90
2019-05-28T11:45:19.691Z,21.00
2019-05-28T11:47:51.020Z,20.90
2019-05-28T11:50:20.472Z,20.90
2019-05-28T11:52:49.948Z,20.90
2019-05-28T11:55:19.414Z,20.80
2019-05-28T11:57:48.915Z,20.80
2019-05-28T12:00:18.512Z,20.80
2019-05-28T12:02:47.974Z,20.80
2019-05-28T12:05:17.580Z,20.90
2019-05-28T12:07:47.081Z,21.00
2019-05-28T12:10:16.658Z,20.80
2019-05-28T12:12:46.208Z,20.70
2019-05-28T12:15:17.623Z,20.70
2019-05-28T12:17:47.148Z,20.60
2019-05-28T12:20:19.505Z,20.60
2019-05-28T12:22:48.975Z,20.60
2019-05-28T12:25:18.448Z,20.60
2019-05-28T12:27:47.956Z,20.50
2019-05-28T12:30:18.655Z,20.50
2019-05-28T12:32:48.531Z,20.50
2019-05-28T12:35:27.998Z,20.60
2019-05-28T12:37:50.725Z,20.70
2019-05-28T12:40:20.701Z,20.90
2019-05-28T12:42:50.225Z,21.10
2019-05-28T12:45:34.226Z,21.30
2019-05-28T12:48:07.167Z,21.40
2019-05-28T12:50:22.234Z,21.40
2019-05-28T12:52:51.775Z,21.50
2019-05-28T12:55:22.342Z,21.60
2019-05-28T12:57:51.902Z,21.70
2019-05-28T13:00:21.397Z,21.90
2019-05-28T13:02:50.866Z,22.30
2019-05-28T13:05:26.998Z,22.70
2019-05-28T13:08:08.299Z,23.00
2019-05-28T13:10:27.724Z,23.30
2019-05-28T13:12:57.222Z,23.70
2019-05-28T13:15:26.682Z,23.90
2019-05-28T13:17:56.152Z,24.10
2019-05-28T13:20:25.641Z,24.10
2019-05-28T13:22:55.112Z,24.30
2019-05-28T13:25:24.575Z,24.60
2019-05-28T13:27:54.068Z,24.60
2019-05-28T13:30:23.528Z,24.90
2019-05-28T13:32:53.321Z,25.10
2019-05-28T13:35:23.087Z,25.30
2019-05-28T13:37:52.560Z,25.80
2019-05-28T13:40:22.043Z,25.80
2019-05-28T13:42:51.874Z,25.80
2019-05-28T13:45:21.442Z,26.20
2019-05-28T13:47:50.922Z,26.50
2019-05-28T13:50:20.528Z,26.40
2019-05-28T13:52:49.939Z,26.50
2019-05-28T13:55:19.609Z,26.80
2019-05-28T13:57:49.105Z,27.10
2019-05-28T14:00:20.071Z,27.00
2019-05-28T14:02:49.589Z,26.90
2019-05-28T14:05:19.115Z,26.90
2019-05-28T14:07:48.637Z,26.70
2019-05-28T14:10:18.115Z,26.60
2019-05-28T14:12:47.621Z,27.00
2019-05-28T14:15:17.263Z,27.50
2019-05-28T14:17:46.735Z,27.60
2019-05-28T14:20:16.317Z,27.60
2019-05-28T14:22:45.918Z,27.40
2019-05-28T14:25:15.436Z,27.30
2019-05-28T14:27:45.041Z,27.30
2019-05-28T14:30:17.702Z,27.20
2019-05-28T14:32:47.197Z,27.00
2019-05-28T14:35:17.535Z,26.80
2019-05-28T14:37:47.039Z,26.30
2019-05-28T14:40:16.521Z,25.90
2019-05-28T14:42:45.992Z,25.80
2019-05-28T14:45:15.463Z,25.50
2019-05-28T14:47:45.003Z,25.40
2019-05-28T14:50:14.471Z,25.60
2019-05-28T14:52:44.056Z,25.60
2019-05-28T14:55:13.602Z,25.30
2019-05-28T14:57:43.232Z,24.70
2019-05-28T15:00:15.434Z,24.10
2019-05-28T15:02:45.048Z,23.70
2019-05-28T15:05:14.514Z,23.30
2019-05-28T15:07:44.068Z,23.00
2019-05-28T15:10:15.466Z,22.80
2019-05-28T15:12:45.009Z,22.50
2019-05-28T15:15:15.189Z,22.20
2019-05-28T15:17:44.661Z,21.90
2019-05-28T15:20:14.680Z,21.50
2019-05-28T15:22:44.180Z,21.10
2019-05-28T15:25:13.674Z,20.90
2019-05-28T15:27:43.236Z,20.60
2019-05-28T15:30:13.822Z,20.40
2019-05-28T15:32:43.332Z,20.30
2019-05-28T15:35:13.013Z,20.10
2019-05-28T15:37:42.500Z,20.00
2019-05-28T15:40:12.294Z,20.00
2019-05-28T15:42:41.756Z,20.10
2019-05-28T15:45:11.737Z,20.10
2019-05-28T15:47:44.749Z,20.20
2019-05-28T15:50:13.035Z,20.20
2019-05-28T15:52:42.497Z,20.30
2019-05-28T15:55:12.008Z,20.30
2019-05-28T15:57:41.483Z,20.50
2019-05-28T16:00:17.766Z,20.40
2019-05-28T16:02:47.175Z,20.40
2019-05-28T16:05:16.650Z,20.40
2019-05-28T16:07:46.182Z,20.50
2019-05-28T16:10:15.657Z,20.40
2019-05-28T16:12:45.135Z,20.50
2019-05-28T16:15:14.722Z,20.40
2019-05-28T16:17:44.221Z,20.30
2019-05-28T16:20:13.752Z,20.10
2019-05-28T16:22:43.398Z,20.20
2019-05-28T16:25:13.027Z,20.10
2019-05-28T16:27:42.495Z,20.00
2019-05-28T16:30:13.386Z,19.90
2019-05-28T16:32:42.863Z,19.70
2019-05-28T16:35:13.349Z,19.60
2019-05-28T16:37:43.023Z,19.50
2019-05-28T16:40:15.644Z,19.30
2019-05-28T16:42:44.119Z,19.20
2019-05-28T16:45:13.611Z,19.10
2019-05-28T16:47:43.084Z,19.10
2019-05-28T16:50:13.522Z,19.00
2019-05-28T16:52:43.279Z,18.90
2019-05-28T16:55:12.750Z,18.90
2019-05-28T16:57:42.214Z,18.80
2019-05-28T17:00:11.729Z,18.80
2019-05-28T17:02:41.307Z,18.80
2019-05-28T17:05:10.799Z,18.70
2019-05-28T17:07:40.497Z,18.70
2019-05-28T17:10:09.971Z,18.70
2019-05-28T17:12:39.469Z,18.70
2019-05-28T17:15:08.979Z,18.60
2019-05-28T17:17:38.847Z,18.60
2019-05-28T17:20:09.249Z,18.60
2019-05-28T17:22:38.729Z,18.60
2019-05-28T17:25:11.502Z,18.50
2019-05-28T17:27:39.615Z,18.50
2019-05-28T17:30:17.925Z,18.40
2019-05-28T17:32:40.511Z,18.40
2019-05-28T17:35:10.018Z,18.40
2019-05-28T17:37:39.584Z,18.30
2019-05-28T17:40:09.059Z,18.30
2019-05-28T17:42:38.572Z,18.20
2019-05-28T17:45:08.971Z,18.20
2019-05-28T17:47:43.011Z,18.20
2019-05-28T17:50:09.723Z,18.10
2019-05-28T17:52:39.201Z,18.10
2019-05-28T17:55:08.683Z,18.10
2019-05-28T17:57:38.190Z,18.10
2019-05-28T18:00:07.662Z,18.10
2019-05-28T18:02:37.309Z,18.00
2019-05-28T18:05:07.500Z,18.00
2019-05-28T18:07:36.989Z,18.00
2019-05-28T18:10:12.624Z,17.90
2019-05-28T18:12:42.101Z,17.90
2019-05-28T18:15:11.668Z,17.90
2019-05-28T18:17:41.179Z,17.90
2019-05-28T18:20:10.839Z,17.90
2019-05-28T18:22:40.343Z,17.90
2019-05-28T18:25:09.851Z,17.80
2019-05-28T18:27:39.313Z,17.80
2019-05-28T18:30:09.273Z,17.70
2019-05-28T18:32:39.262Z,17.70
2019-05-28T18:35:09.196Z,17.70
2019-05-28T18:37:38.680Z,17.70
2019-05-28T18:40:10.192Z,17.70
2019-05-28T18:42:39.671Z,17.70
2019-05-28T18:45:09.649Z,17.60
2019-05-28T18:47:40.590Z,17.60
2019-05-28T18:50:11.546Z,17.60
2019-05-28T18:52:41.015Z,17.60
2019-05-28T18:55:11.623Z,17.60
2019-05-28T18:57:41.214Z,17.60
2019-05-28T19:00:11.063Z,17.50
2019-05-28T19:02:40.595Z,17.50
2019-05-28T19:05:10.068Z,17.40
2019-05-28T19:07:39.545Z,17.30
2019-05-28T19:10:09.050Z,17.30
2019-05-28T19:12:38.617Z,17.30
2019-05-28T19:15:08.808Z,17.30
2019-05-28T19:17:38.305Z,17.20
2019-05-28T19:20:09.543Z,17.20
2019-05-28T19:22:39.021Z,17.10
2019-05-28T19:25:11.305Z,17.00
2019-05-28T19:27:40.874Z,17.00
2019-05-28T19:30:11.256Z,17.00
2019-05-28T19:32:40.825Z,16.90
2019-05-28T19:35:11.002Z,16.90
2019-05-28T19:37:40.486Z,16.90
2019-05-28T19:40:09.986Z,16.80
2019-05-28T19:42:39.481Z,16.80
2019-05-28T19:45:08.980Z,16.80
2019-05-28T19:47:38.476Z,16.70
2019-05-28T19:50:08.259Z,16.70
2019-05-28T19:52:37.730Z,16.70
2019-05-28T19:55:10.579Z,16.70
2019-05-28T19:57:40.200Z,16.70
2019-05-28T20:00:09.696Z,16.60
2019-05-28T20:02:39.188Z,16.60
2019-05-28T20:05:08.782Z,16.60
2019-05-28T20:07:38.369Z,16.60
2019-05-28T20:10:07.875Z,16.50
2019-05-28T20:12:37.352Z,16.50
2019-05-28T20:15:11.586Z,16.50
2019-05-28T20:17:41.128Z,16.50
2019-05-28T20:20:11.015Z,16.50
2019-05-28T20:22:40.972Z,16.40
2019-05-28T20:25:10.467Z,16.50
2019-05-28T20:27:39.964Z,16.40
2019-05-28T20:30:11.450Z,16.40
2019-05-28T20:32:41.034Z,16.40
2019-05-28T20:35:11.510Z,16.30
2019-05-28T20:37:41.314Z,16.30
2019-05-28T20:40:10.955Z,16.20
2019-05-28T20:42:40.417Z,16.20
2019-05-28T20:45:11.857Z,16.20
2019-05-28T20:47:41.231Z,16.20
2019-05-28T20:50:11.748Z,16.10
2019-05-28T20:52:41.449Z,16.10
2019-05-28T20:55:10.948Z,16.00
2019-05-28T20:57:40.461Z,16.00
2019-05-28T21:00:10.052Z,16.00
2019-05-28T21:02:39.558Z,15.90
2019-05-28T21:05:09.151Z,15.90
2019-05-28T21:07:38.751Z,15.90
2019-05-28T21:10:09.157Z,15.80
2019-05-28T21:12:44.243Z,15.80
2019-05-28T21:15:09.948Z,15.80
2019-05-28T21:17:39.493Z,15.80
2019-05-28T21:20:10.554Z,15.80
2019-05-28T21:22:40.046Z,15.70
2019-05-28T21:25:09.539Z,15.70
2019-05-28T21:27:39.125Z,15.70
2019-05-28T21:30:09.048Z,15.70
2019-05-28T21:32:38.846Z,15.60
2019-05-28T21:35:08.423Z,15.60
2019-05-28T21:37:37.897Z,15.60
2019-05-28T21:40:07.394Z,15.50
2019-05-28T21:42:37.161Z,15.50
2019-05-28T21:45:07.033Z,15.50
2019-05-28T21:47:36.527Z,15.40
2019-05-28T21:50:09.912Z,15.40
2019-05-28T21:52:39.386Z,15.40
2019-05-28T21:55:09.295Z,15.40
2019-05-28T21:57:38.881Z,15.40
2019-05-28T22:00:35.554Z,15.40
2019-05-28T22:03:05.207Z,15.40
2019-05-28T22:05:34.787Z,15.30
2019-05-28T22:08:04.888Z,15.30
2019-05-28T22:10:34.536Z,15.20
2019-05-28T22:13:18.239Z,15.20
2019-05-28T22:15:35.229Z,15.20
2019-05-28T22:18:04.708Z,15.20
2019-05-28T22:20:34.208Z,15.10
2019-05-28T22:23:04.646Z,15.10
2019-05-28T22:25:34.259Z,15.10
2019-05-28T22:28:04.894Z,15.10
2019-05-28T22:30:34.723Z,15.10
2019-05-28T22:33:04.347Z,15.10
2019-05-28T22:35:33.841Z,15.10
2019-05-28T22:38:03.473Z,15.10
2019-05-28T22:40:32.965Z,15.00
2019-05-28T22:43:03.601Z,15.00
2019-05-28T22:45:33.549Z,15.00
2019-05-28T22:48:06.516Z,15.00
2019-05-28T22:50:34.485Z,15.00
2019-05-28T22:53:04.044Z,15.00
2019-05-28T22:55:33.673Z,15.00
2019-05-28T22:58:04.346Z,15.00
2019-05-28T23:00:33.918Z,15.00
2019-05-28T23:03:03.395Z,15.00
2019-05-28T23:05:32.988Z,15.00
2019-05-28T23:08:03.698Z,14.90
2019-05-28T23:10:33.453Z,14.90
2019-05-28T23:13:03.317Z,14.90
2019-05-28T23:15:32.798Z,14.90
2019-05-28T23:18:02.464Z,14.90
2019-05-28T23:20:31.978Z,14.80
2019-05-28T23:23:01.419Z,14.80
2019-05-28T23:25:30.918Z,14.80
2019-05-28T23:28:01.394Z,14.80
2019-05-28T23:30:31.042Z,14.80
2019-05-28T23:33:00.590Z,14.70
2019-05-28T23:35:30.107Z,14.70
2019-05-28T23:37:59.689Z,14.60
2019-05-28T23:40:29.301Z,14.60
2019-05-28T23:42:58.770Z,14.60
2019-05-28T23:45:28.256Z,14.60
2019-05-28T23:47:57.760Z,14.60
2019-05-28T23:50:27.333Z,14.60
2019-05-28T23:52:56.887Z,14.50
2019-05-28T23:55:26.443Z,14.50
2019-05-28T23:57:55.907Z,14.50
